createdAt,value
2022-11-18T00:01:24.255Z,94902.16
2022-11-18T00:03:52.949Z,94903.72
2022-11-18T00:06:23.479Z,94905.16
2022-11-18T00:08:53.365Z,94919.56
2022-11-18T00:11:41.024Z,94916.94
2022-11-18T00:14:23.607Z,94914.47
2022-11-18T00:16:54.301Z,94914.91
2022-11-18T00:19:23.288Z,94900.53
2022-11-18T00:21:51.306Z,94898.91
2022-11-18T00:24:20.759Z,94897.13
2022-11-18T00:26:48.473Z,94884.91
2022-11-18T00:29:17.015Z,94886.13
2022-11-18T00:31:45.401Z,94892.59
2022-11-18T00:34:15.034Z,94890.97
2022-11-18T00:36:43.683Z,94883.94
2022-11-18T00:39:12.285Z,94885.56
2022-11-18T00:41:59.007Z,94880.56
2022-11-18T00:44:26.925Z,94883.38
2022-11-18T00:46:54.995Z,94892.63
2022-11-18T00:49:22.919Z,94885.06
2022-11-18T00:51:50.506Z,94886.88
2022-11-18T00:54:18.442Z,94894.13
2022-11-18T00:56:47.447Z,94896.28
2022-11-18T00:59:15.276Z,94902.63
2022-11-18T01:01:43.137Z,94914.41
2022-11-18T01:04:10.817Z,94912.41
2022-11-18T01:06:38.505Z,94915.00
2022-11-18T01:09:06.395Z,94916.38
2022-11-18T01:11:51.394Z,94915.59
2022-11-18T01:14:20.396Z,94913.41
2022-11-18T01:16:51.196Z,94909.88
2022-11-18T01:19:19.363Z,94911.78
2022-11-18T01:21:47.485Z,94911.41
2022-11-18T01:24:15.607Z,94913.22
2022-11-18T01:26:43.693Z,94917.41
2022-11-18T01:29:11.515Z,94917.41
2022-11-18T01:31:55.653Z,94916.41
2022-11-18T01:34:29.052Z,94913.34
2022-11-18T01:36:58.550Z,94912.56
2022-11-18T01:39:26.142Z,94911.97
2022-11-18T01:41:53.981Z,94904.38
2022-11-18T01:45:10.493Z,94912.75
2022-11-18T01:47:43.308Z,94911.19
2022-11-18T01:50:11.869Z,94909.59
2022-11-18T01:52:40.787Z,94905.41
2022-11-18T01:55:15.547Z,94913.22
2022-11-18T01:57:44.270Z,94899.63
2022-11-18T02:00:13.643Z,94905.25
2022-11-18T02:02:43.086Z,94907.72
2022-11-18T02:05:12.732Z,94907.72
2022-11-18T02:07:43.582Z,94912.13
2022-11-18T02:10:19.630Z,94908.50
2022-11-18T02:12:47.579Z,94909.09
2022-11-18T02:15:15.431Z,94915.91
2022-11-18T02:17:52.857Z,94907.06
2022-11-18T02:20:27.978Z,94908.88
2022-11-18T02:23:37.167Z,94905.25
2022-11-18T02:26:47.103Z,94915.09
2022-11-18T02:29:19.457Z,94912.50
2022-11-18T02:31:53.419Z,94915.09
2022-11-18T02:34:33.334Z,94921.88
2022-11-18T02:37:07.439Z,94922.84
2022-11-18T02:39:40.588Z,94918.41
2022-11-18T02:42:12.941Z,94916.81
2022-11-18T02:44:46.571Z,94920.00
2022-11-18T02:47:16.848Z,94924.22
2022-11-18T02:49:49.504Z,94918.22
2022-11-18T02:52:25.061Z,94932.59
2022-11-18T02:54:53.983Z,94934.19
2022-11-18T02:57:23.347Z,94928.75
2022-11-18T02:59:52.414Z,94933.19
2022-11-18T03:02:21.430Z,94935.78
2022-11-18T03:04:52.701Z,94934.75
2022-11-18T03:07:26.023Z,94937.16
2022-11-18T03:09:54.237Z,94941.56
2022-11-18T03:12:28.843Z,94939.97
2022-11-18T03:15:08.230Z,94935.34
2022-11-18T03:17:47.100Z,94937.28
2022-11-18T03:20:22.094Z,94944.88
2022-11-18T03:22:55.749Z,94949.66
2022-11-18T03:25:28.911Z,94948.41
2022-11-18T03:28:04.248Z,94956.81
2022-11-18T03:30:34.210Z,94953.41
2022-11-18T03:33:06.886Z,94962.69
2022-11-18T08:27:25.196Z,95246.25
2022-11-18T08:29:52.866Z,95246.84
2022-11-18T08:32:20.475Z,95252.03
2022-11-18T08:34:48.050Z,95252.03
2022-11-18T08:37:15.578Z,95247.25
2022-11-18T08:39:43.431Z,95258.47
2022-11-18T08:42:11.667Z,95258.09
2022-11-18T08:44:40.632Z,95259.69
2022-11-18T08:47:08.107Z,95256.50
2022-11-18T08:49:35.615Z,95255.91
2022-11-18T08:52:03.159Z,95256.50
2022-11-18T08:54:31.591Z,95276.88
2022-11-18T08:56:59.176Z,95271.72
2022-11-18T08:59:33.620Z,95281.16
2022-11-18T09:02:02.524Z,95283.75
2022-11-18T09:04:30.177Z,95277.16
2022-11-18T09:06:57.791Z,95276.34
2022-11-18T09:09:25.356Z,95277.38
2022-11-18T09:11:52.933Z,95291.16
2022-11-18T09:17:44.407Z,95291.75
2022-11-18T09:20:12.386Z,95284.38
2022-11-18T09:22:40.295Z,95301.75
2022-11-18T09:25:09.235Z,95302.97
2022-11-18T09:27:36.903Z,95305.56
2022-11-18T09:30:05.216Z,95311.38
2022-11-18T09:32:33.542Z,95312.16
2022-11-18T09:37:32.141Z,95318.97
2022-11-18T09:39:59.750Z,95318.19
2022-11-18T09:42:40.793Z,95321.75
2022-11-18T09:45:23.592Z,95322.97
2022-11-18T09:47:52.625Z,95328.59
2022-11-18T09:53:20.522Z,95345.19
2022-11-18T09:55:49.777Z,95343.19
2022-11-18T09:58:22.275Z,95347.16
2022-11-18T10:00:49.829Z,95350.97
2022-11-18T10:03:24.421Z,95349.75
2022-11-18T10:05:56.695Z,95360.38
2022-11-18T10:08:29.010Z,95361.00
2022-11-18T10:11:04.747Z,95365.19
2022-11-18T10:13:49.939Z,95367.78
2022-11-18T10:16:30.225Z,95370.19
2022-11-18T10:19:06.178Z,95370.78
2022-11-18T10:21:46.001Z,95376.59
2022-11-18T10:24:20.737Z,95384.59
2022-11-18T10:26:49.043Z,95375.75
2022-11-18T10:29:16.750Z,95374.97
2022-11-18T10:32:01.163Z,95381.56
2022-11-18T10:34:32.217Z,95380.59
2022-11-18T10:37:01.754Z,95382.38
2022-11-18T10:39:30.665Z,95381.56
2022-11-18T10:42:02.264Z,95386.56
2022-11-18T10:44:33.226Z,95384.56
2022-11-18T10:47:23.659Z,95391.00
2022-11-18T10:49:51.867Z,95388.38
2022-11-18T10:52:19.874Z,95381.78
2022-11-18T10:55:08.236Z,95379.78
2022-11-18T10:57:39.052Z,95381.38
2022-11-18T11:00:09.125Z,95378.97
2022-11-18T11:02:41.800Z,95378.16
2022-11-18T11:05:20.080Z,95380.59
2022-11-18T11:08:29.225Z,95387.38
2022-11-18T11:10:57.785Z,95386.97
2022-11-18T11:13:29.240Z,95391.59
2022-11-18T11:16:00.380Z,95387.78
2022-11-18T11:18:45.065Z,95388.56
2022-11-18T11:21:13.758Z,95379.53
2022-11-18T11:23:41.787Z,95382.97
2022-11-18T11:29:13.179Z,95387.75
2022-11-18T11:31:51.756Z,95389.94
2022-11-18T11:34:45.640Z,95386.16
2022-11-18T11:37:31.410Z,95390.94
2022-11-18T11:40:12.652Z,95388.94
2022-11-18T11:42:50.261Z,95384.53
2022-11-18T11:45:20.955Z,95395.13
2022-11-18T11:48:03.880Z,95385.75
2022-11-18T11:51:02.003Z,95388.16
2022-11-18T11:53:53.274Z,95391.53
2022-11-18T11:56:33.512Z,95383.31
2022-11-18T11:59:19.607Z,95390.75
2022-11-18T12:02:03.349Z,95393.34
2022-11-18T12:04:43.920Z,95399.53
2022-11-18T12:07:16.855Z,95395.34
2022-11-18T12:09:58.874Z,95391.72
2022-11-18T12:12:36.638Z,95390.50
2022-11-18T12:15:26.897Z,95387.13
2022-11-18T12:18:03.903Z,95388.72
2022-11-18T12:20:42.627Z,95389.34
2022-11-18T12:23:12.224Z,95392.53
2022-11-18T12:26:03.072Z,95383.72
2022-11-18T12:28:33.608Z,95380.91
2022-11-18T12:31:37.024Z,95384.72
2022-11-18T12:34:06.346Z,95392.13
2022-11-18T12:36:35.866Z,95393.53
2022-11-18T12:39:45.350Z,95396.13
2022-11-18T12:42:54.900Z,95390.13
2022-11-18T12:45:58.996Z,95397.34
2022-11-18T12:48:34.481Z,95400.94
2022-11-18T12:51:03.051Z,95400.13
2022-11-18T12:53:38.936Z,95404.13
2022-11-18T12:56:23.444Z,95389.72
2022-11-18T12:58:53.956Z,95397.34
2022-11-18T13:01:23.254Z,95394.34
2022-11-18T13:03:52.912Z,95399.34
2022-11-18T13:06:25.820Z,95410.56
2022-11-18T13:08:56.862Z,95409.34
2022-11-18T13:11:43.599Z,95405.75
2022-11-18T13:14:34.595Z,95406.72
2022-11-18T13:17:25.233Z,95409.13
2022-11-18T13:19:57.897Z,95417.97
2022-11-18T13:22:43.484Z,95414.16
2022-11-18T13:25:25.324Z,95415.56
2022-11-18T13:28:01.483Z,95412.94
2022-11-18T13:30:31.130Z,95414.75
2022-11-18T13:33:00.232Z,95413.94
2022-11-18T13:35:29.842Z,95428.94
2022-11-18T13:37:59.984Z,95428.16
2022-11-18T13:40:29.215Z,95431.78
2022-11-18T13:42:57.551Z,95423.38
2022-11-18T13:45:28.739Z,95419.38
2022-11-18T13:48:01.612Z,95428.16
2022-11-18T13:50:34.364Z,95422.78
2022-11-18T13:53:10.103Z,95432.16
2022-11-18T13:55:52.812Z,95438.19
2022-11-18T13:58:55.683Z,95440.19
2022-11-18T14:01:24.609Z,95446.97
2022-11-18T14:03:54.386Z,95436.56
2022-11-18T14:06:27.812Z,95444.97
2022-11-18T14:09:06.563Z,95442.38
2022-11-18T14:11:39.157Z,95443.38
2022-11-18T14:14:07.683Z,95446.97
2022-11-18T14:16:37.603Z,95446.19
2022-11-18T14:19:05.877Z,95450.59
2022-11-18T14:21:38.447Z,95450.38
2022-11-18T14:24:06.897Z,95459.81
2022-11-18T14:26:36.494Z,95456.41
2022-11-18T14:29:20.802Z,95458.19
2022-11-18T14:32:18.542Z,95459.41
2022-11-18T14:34:47.032Z,95458.41
2022-11-18T14:37:17.189Z,95469.00
2022-11-18T14:39:56.870Z,95461.81
2022-11-18T14:42:25.923Z,95471.44
2022-11-18T14:44:53.516Z,95469.63
2022-11-18T14:47:27.092Z,95478.81
2022-11-18T14:49:54.695Z,95484.03
2022-11-18T14:52:38.610Z,95484.81
2022-11-18T14:55:06.982Z,95479.84
2022-11-18T14:57:34.906Z,95480.22
2022-11-18T15:00:02.835Z,95486.44
2022-11-18T15:02:30.534Z,95493.41
2022-11-18T15:04:58.421Z,95491.66
2022-11-18T15:07:28.758Z,95491.84
2022-11-18T15:09:57.780Z,95493.41
2022-11-18T15:12:25.350Z,95495.22
2022-11-18T15:14:52.901Z,95490.44
2022-11-18T15:17:20.724Z,95497.44
2022-11-18T15:19:48.358Z,95501.81
2022-11-18T15:22:15.954Z,95495.03
2022-11-18T15:24:43.654Z,95508.25
2022-11-18T15:27:12.729Z,95513.84
2022-11-18T15:29:41.526Z,95511.06
2022-11-18T15:32:09.385Z,95517.06
2022-11-18T15:34:37.168Z,95527.25
2022-11-18T15:37:04.823Z,95526.25
2022-11-18T15:39:32.533Z,95527.06
2022-11-18T15:42:00.330Z,95529.66
2022-11-18T15:44:29.892Z,95525.06
2022-11-18T15:47:00.921Z,95534.06
2022-11-18T15:49:28.710Z,95534.47
2022-11-18T15:51:56.673Z,95540.66
2022-11-18T15:54:24.922Z,95547.69
2022-11-18T15:56:55.871Z,95544.88
2022-11-18T16:12:55.617Z,95536.25
2022-11-18T16:15:51.966Z,95543.88
2022-11-18T16:18:45.850Z,95541.28
2022-11-18T16:21:15.351Z,95540.84
2022-11-18T16:23:44.965Z,95543.06
2022-11-18T16:26:13.545Z,95552.28
2022-11-18T16:28:43.474Z,95549.84
2022-11-18T16:31:29.092Z,95554.28
2022-11-18T16:33:57.871Z,95557.47
2022-11-18T16:36:29.481Z,95559.28
2022-11-18T16:38:58.791Z,95561.28
2022-11-18T16:41:37.312Z,95566.66
2022-11-18T16:44:16.800Z,95568.66
2022-11-18T16:46:48.856Z,95568.66
2022-11-18T16:49:22.633Z,95572.06
2022-11-18T16:51:53.227Z,95571.88
2022-11-18T16:54:23.346Z,95573.47
2022-11-18T16:56:55.239Z,95567.88
2022-11-18T16:59:35.395Z,95581.88
2022-11-18T17:02:04.596Z,95578.88
2022-11-18T17:04:35.843Z,95593.28
2022-11-18T17:07:04.967Z,95586.47
2022-11-18T17:09:34.716Z,95594.88
2022-11-18T17:12:05.189Z,95599.09
2022-11-18T17:14:38.443Z,95603.91
2022-11-18T17:17:08.335Z,95600.31
2022-11-18T17:19:40.190Z,95599.31
2022-11-18T17:22:07.843Z,95611.53
2022-11-18T17:24:36.352Z,95614.72
2022-11-18T17:27:04.291Z,95609.34
2022-11-18T17:29:34.507Z,95618.31
2022-11-18T17:32:03.506Z,95609.53
2022-11-18T17:34:31.191Z,95613.53
2022-11-18T17:37:04.830Z,95619.34
2022-11-18T17:39:35.112Z,95630.56
2022-11-18T17:42:15.619Z,95621.75
2022-11-18T17:44:43.953Z,95625.97
2022-11-18T17:47:13.960Z,95625.97
2022-11-18T17:49:43.461Z,95630.19
2022-11-18T17:52:11.159Z,95633.56
2022-11-18T17:54:38.811Z,95626.75
2022-11-18T17:57:06.439Z,95629.97
2022-11-18T17:59:34.581Z,95639.56
2022-11-18T18:02:02.238Z,95629.16
2022-11-18T18:04:31.658Z,95636.97
2022-11-18T18:07:00.813Z,95632.38
2022-11-18T18:09:30.918Z,95645.56
2022-11-18T18:11:59.897Z,95642.78
2022-11-18T18:14:26.691Z,95637.56
2022-11-18T18:17:00.665Z,95636.97
2022-11-18T18:19:29.073Z,95631.78
2022-11-18T18:21:58.641Z,95638.97
2022-11-18T18:24:29.141Z,95636.78
2022-11-18T18:26:56.908Z,95643.38
2022-11-18T18:29:25.815Z,95649.38
2022-11-18T18:31:53.827Z,95647.78
2022-11-18T18:34:22.519Z,95644.34
2022-11-18T18:36:54.870Z,95647.97
2022-11-18T18:39:24.562Z,95650.56
2022-11-18T18:41:52.535Z,95646.75
2022-11-18T18:44:20.745Z,95653.16
2022-11-18T18:46:49.771Z,95655.94
2022-11-18T18:49:20.615Z,95654.53
2022-11-18T18:51:50.102Z,95655.56
2022-11-18T18:54:20.301Z,95664.34
2022-11-18T18:56:49.849Z,95648.91
2022-11-18T18:59:17.861Z,95650.94
2022-11-18T19:01:54.678Z,95651.13
2022-11-18T19:04:25.710Z,95641.09
2022-11-18T19:06:59.704Z,95648.09
2022-11-18T19:09:31.528Z,95657.09
2022-11-18T19:23:46.780Z,95669.47
2022-11-18T19:59:24.702Z,95679.47
2022-11-18T20:16:03.219Z,95680.28
2022-11-18T20:27:15.307Z,95691.03
2022-11-18T21:12:22.766Z,95727.47
